Time;durP1;ratioP1;P1;durP2;ratioP2;P2;SDS_P1;SDS_P2;PMS_P1;PMS_P2;Temp;Humidity;BMP_temperature;BMP_pressure;BME280_temperature;BME280_humidity;BME280_pressure;Samples;Min_cycle;Max_cycle;Signal;HPM_P1;HPM_P2
2022/12/30 00:00:27;;;;;;;3.07;0.90;;;9.20;99.90;;;;;;4959727;28;20192;-74
2022/12/30 00:02:52;;;;;;;4.20;0.93;;;9.20;99.90;;;;;;4959340;28;20214;-75
2022/12/30 00:05:18;;;;;;;3.20;1.10;;;9.10;99.90;;;;;;4976912;28;20258;-74
2022/12/30 00:07:44;;;;;;;3.40;1.30;;;9.20;99.90;;;;;;4963891;28;20183;-74
2022/12/30 00:10:09;;;;;;;4.47;1.17;;;9.20;99.90;;;;;;4956067;29;20305;-74
2022/12/30 00:35:17;;;;;;;3.10;1.00;;;8.90;99.90;;;;;;4978134;28;20265;-75
2022/12/30 00:37:45;;;;;;;3.57;1.20;;;8.80;99.90;;;;;;4959362;28;20357;-74
2022/12/30 00:40:13;;;;;;;4.97;1.20;;;8.80;99.90;;;;;;4961544;28;20176;-74
2022/12/30 00:45:25;;;;;;;4.80;1.20;;;8.80;99.90;;;;;;4958364;28;20271;-74
2022/12/30 00:47:53;;;;;;;2.83;0.90;;;8.80;99.90;;;;;;4959642;28;20191;-74
2022/12/30 00:58:33;;;;;;;5.47;1.23;;;8.70;99.90;;;;;;4977096;28;20211;-74
2022/12/30 01:00:59;;;;;;;4.03;1.30;;;8.70;99.90;;;;;;4960274;28;20172;-73
2022/12/30 01:03:25;;;;;;;5.43;1.10;;;8.70;99.90;;;;;;4960347;28;20176;-74
2022/12/30 01:05:53;;;;;;;3.23;1.10;;;8.70;99.90;;;;;;4960258;28;20208;-74
2022/12/30 01:08:21;;;;;;;4.93;1.40;;;8.80;99.90;;;;;;4960212;28;20211;-74
2022/12/30 01:10:46;;;;;;;5.33;1.27;;;8.70;99.90;;;;;;4959460;28;20295;-75
2022/12/30 01:13:12;;;;;;;2.97;1.00;;;8.70;99.90;;;;;;4959934;28;20265;-73
2022/12/30 01:15:40;;;;;;;2.87;1.13;;;8.70;99.90;;;;;;4960906;28;20196;-74
2022/12/30 01:18:05;;;;;;;4.63;1.10;;;8.70;99.90;;;;;;4960104;28;20171;-75
2022/12/30 01:20:31;;;;;;;5.07;1.30;;;8.70;99.90;;;;;;4960239;28;20192;-74
2022/12/30 01:22:59;;;;;;;3.73;1.50;;;8.70;99.90;;;;;;4960345;28;20172;-74
2022/12/30 01:25:27;;;;;;;2.90;1.20;;;8.70;99.90;;;;;;4956141;28;20180;-74
2022/12/30 01:27:52;;;;;;;4.10;1.20;;;8.70;99.90;;;;;;4952456;28;20180;-74
2022/12/30 01:30:20;;;;;;;4.07;1.70;;;8.70;99.90;;;;;;4953654;28;20204;-74
2022/12/30 01:32:48;;;;;;;3.77;1.00;;;8.70;99.90;;;;;;4957338;28;20213;-74
2022/12/30 01:35:14;;;;;;;2.83;1.10;;;8.70;99.90;;;;;;4955939;28;20188;-74
2022/12/30 01:37:39;;;;;;;3.10;1.00;;;8.60;99.90;;;;;;4955552;28;20188;-73
2022/12/30 01:40:05;;;;;;;4.10;1.20;;;8.60;99.90;;;;;;4958690;28;20290;-74
2022/12/30 01:42:39;;;;;;;5.03;1.10;;;8.50;99.90;;;;;;4974065;28;20214;-74
2022/12/30 01:45:19;;;;;;;3.73;1.30;;;8.50;99.90;;;;;;4974117;28;20445;-74
2022/12/30 01:48:02;;;;;;;4.23;1.10;;;8.40;99.90;;;;;;4957310;28;20250;-73
2022/12/30 01:50:38;;;;;;;3.40;1.00;;;8.30;99.90;;;;;;4956494;28;20188;-74
2022/12/30 01:53:15;;;;;;;5.00;1.40;;;8.30;99.90;;;;;;4956702;28;20226;-73
2022/12/30 01:55:47;;;;;;;3.07;1.10;;;8.20;99.90;;;;;;4960644;28;20219;-74
2022/12/30 01:58:18;;;;;;;3.23;1.03;;;8.10;99.90;;;;;;4978702;28;20179;-74
2022/12/30 02:00:44;;;;;;;2.70;0.90;;;7.90;99.90;;;;;;4977587;28;20202;-74
2022/12/30 02:03:11;;;;;;;5.33;1.13;;;7.90;99.90;;;;;;4958984;28;20176;-74
2022/12/30 02:05:39;;;;;;;3.23;1.00;;;7.80;99.90;;;;;;4955642;28;20211;-73
2022/12/30 02:08:20;;;;;;;3.73;1.20;;;7.70;99.90;;;;;;4940172;29;20204;-74
2022/12/30 02:10:48;;;;;;;3.53;1.30;;;7.60;99.90;;;;;;4943929;28;20180;-74
2022/12/30 02:13:16;;;;;;;3.30;1.20;;;7.60;99.90;;;;;;4958905;28;20424;-73
2022/12/30 02:16:20;;;;;;;3.20;1.20;;;7.50;99.90;;;;;;4955459;28;20215;-72
2022/12/30 02:18:49;;;;;;;3.13;1.27;;;7.40;99.90;;;;;;4970586;28;20187;-74
2022/12/30 02:21:42;;;;;;;4.93;1.00;;;7.40;99.90;;;;;;4964170;28;20187;-74
2022/12/30 02:24:29;;;;;;;2.87;0.80;;;7.40;99.90;;;;;;4958719;28;20199;-74
2022/12/30 02:27:18;;;;;;;2.13;0.90;;;7.30;99.90;;;;;;4958723;28;20180;-74
2022/12/30 02:30:06;;;;;;;4.67;1.27;;;7.20;99.90;;;;;;4965078;28;20219;-74
2022/12/30 02:32:55;;;;;;;3.23;1.10;;;7.20;99.90;;;;;;4962739;28;20279;-74
2022/12/30 02:35:30;;;;;;;4.60;1.23;;;7.10;99.90;;;;;;4961420;28;20203;-74
2022/12/30 02:38:04;;;;;;;2.90;1.40;;;7.10;99.90;;;;;;4959224;28;20178;-73
2022/12/30 02:46:13;;;;;;;3.30;1.13;;;7.20;99.90;;;;;;4984369;28;20191;-73
2022/12/30 02:48:42;;;;;;;3.83;1.50;;;7.00;99.90;;;;;;4962468;28;20184;-74
2022/12/30 02:53:58;;;;;;;4.80;1.10;;;7.10;99.90;;;;;;4971523;28;20222;-73
2022/12/30 02:56:25;;;;;;;2.83;1.27;;;7.00;99.90;;;;;;4981937;28;20218;-75
2022/12/30 03:03:56;;;;;;;3.83;1.40;;;7.00;99.90;;;;;;4970393;28;20180;-74
2022/12/30 03:05:15;;;;;;;4.13;1.23;;;7.00;99.90;;;;;;4979410;28;20207;-74
2022/12/30 03:07:50;;;;;;;5.50;1.33;;;7.00;99.90;;;;;;4962379;28;20168;-74
2022/12/30 03:13:48;;;;;;;3.43;1.20;;;7.00;99.90;;;;;;4989607;28;20194;-73
2022/12/30 03:16:31;;;;;;;5.30;1.20;;;6.90;99.90;;;;;;4981766;28;20171;-74
2022/12/30 03:19:00;;;;;;;3.47;1.00;;;7.00;99.90;;;;;;4965293;28;20195;-74
2022/12/30 03:21:27;;;;;;;4.23;1.30;;;7.00;99.90;;;;;;4962528;28;20176;-74
2022/12/30 03:27:04;;;;;;;4.70;1.40;;;7.00;99.90;;;;;;4976690;28;20314;-74
2022/12/30 03:29:40;;;;;;;3.90;1.10;;;7.00;99.90;;;;;;4955172;28;20173;-74
2022/12/30 03:32:10;;;;;;;5.77;1.20;;;7.00;99.90;;;;;;4953297;29;20267;-74
2022/12/30 03:34:36;;;;;;;2.70;1.00;;;6.90;99.90;;;;;;4957763;28;20201;-73
2022/12/30 03:37:27;;;;;;;3.60;1.10;;;6.90;99.90;;;;;;4981007;28;20172;-73
2022/12/30 03:40:02;;;;;;;3.37;1.10;;;6.90;99.90;;;;;;4959439;28;20184;-73
2022/12/30 03:42:29;;;;;;;4.20;1.10;;;6.90;99.90;;;;;;4967039;28;20199;-74
2022/12/30 03:44:57;;;;;;;3.70;1.30;;;6.90;99.90;;;;;;4961449;28;20210;-73
2022/12/30 03:47:23;;;;;;;6.33;1.30;;;6.90;99.90;;;;;;4963556;28;20175;-73
2022/12/30 03:49:49;;;;;;;3.93;1.27;;;6.90;99.90;;;;;;4961512;28;20179;-74
2022/12/30 03:52:16;;;;;;;4.07;1.00;;;6.90;99.90;;;;;;4959942;28;20218;-75
2022/12/30 03:54:42;;;;;;;4.20;1.33;;;6.90;99.90;;;;;;4961723;28;20211;-74
2022/12/30 03:57:08;;;;;;;3.37;1.23;;;6.90;99.90;;;;;;4955567;28;20187;-74
2022/12/30 03:59:34;;;;;;;3.57;1.07;;;7.00;99.90;;;;;;4960159;28;20219;-74
2022/12/30 04:02:00;;;;;;;5.23;1.37;;;6.90;99.90;;;;;;4966013;28;20279;-74
2022/12/30 04:04:28;;;;;;;3.27;1.10;;;6.90;99.90;;;;;;4951647;28;20176;-74
2022/12/30 04:06:53;;;;;;;3.57;1.20;;;6.90;99.90;;;;;;4951299;28;20205;-74
2022/12/30 04:09:21;;;;;;;4.10;1.00;;;6.90;99.90;;;;;;4942579;29;20176;-73
2022/12/30 04:11:47;;;;;;;2.57;0.90;;;6.90;99.90;;;;;;4960018;28;20246;-73
2022/12/30 04:14:12;;;;;;;4.07;1.27;;;6.90;99.90;;;;;;4961096;28;20286;-74
2022/12/30 04:16:38;;;;;;;3.93;1.07;;;7.00;99.90;;;;;;4962048;28;20180;-73
2022/12/30 04:19:04;;;;;;;3.30;1.20;;;7.10;99.90;;;;;;4960267;28;20218;-74
2022/12/30 04:21:31;;;;;;;3.70;1.20;;;7.00;99.90;;;;;;4962972;28;20227;-73
2022/12/30 04:23:59;;;;;;;2.33;1.10;;;7.00;99.90;;;;;;4960993;28;20222;-73
2022/12/30 04:26:24;;;;;;;6.20;1.50;;;7.00;99.90;;;;;;4958367;28;20209;-73
2022/12/30 04:28:52;;;;;;;5.07;1.30;;;7.00;99.90;;;;;;4943835;28;20173;-74
2022/12/30 04:31:21;;;;;;;6.97;1.20;;;7.10;99.90;;;;;;4946618;28;20224;-73
2022/12/30 04:33:51;;;;;;;2.97;1.10;;;7.00;99.90;;;;;;4959936;28;20192;-73
2022/12/30 04:36:18;;;;;;;3.50;1.20;;;7.00;99.90;;;;;;4969010;28;20198;-74
2022/12/30 04:38:44;;;;;;;2.40;1.03;;;7.00;99.90;;;;;;4964917;28;20177;-74
2022/12/30 04:41:10;;;;;;;5.20;1.17;;;7.00;99.90;;;;;;4961357;28;20211;-73
2022/12/30 04:43:36;;;;;;;3.63;1.33;;;7.10;99.90;;;;;;4972666;28;20187;-73
2022/12/30 04:46:01;;;;;;;5.13;1.23;;;6.90;99.90;;;;;;4956372;28;20196;-73
2022/12/30 04:48:27;;;;;;;4.17;1.20;;;6.90;99.90;;;;;;4954545;28;20184;-73
2022/12/30 04:50:53;;;;;;;4.97;1.50;;;6.90;99.90;;;;;;4959566;28;20215;-73
2022/12/30 04:53:18;;;;;;;4.70;1.53;;;6.90;99.90;;;;;;4967185;28;20188;-73
2022/12/30 04:55:44;;;;;;;4.00;1.40;;;6.90;99.90;;;;;;4956196;29;20223;-73
2022/12/30 04:58:12;;;;;;;3.40;1.20;;;6.90;99.90;;;;;;4943841;28;20195;-74
2022/12/30 05:00:40;;;;;;;4.73;1.10;;;6.90;99.90;;;;;;4960170;28;20172;-74
2022/12/30 05:03:07;;;;;;;4.70;1.37;;;7.00;99.90;;;;;;4959944;28;20209;-75
2022/12/30 05:05:33;;;;;;;4.80;1.10;;;6.90;99.90;;;;;;4959664;28;20176;-74
2022/12/30 05:07:59;;;;;;;3.50;1.47;;;7.00;99.90;;;;;;4959976;28;20208;-75
2022/12/30 05:10:26;;;;;;;2.97;1.00;;;7.00;99.90;;;;;;4960208;28;20180;-74
2022/12/30 05:12:54;;;;;;;3.47;1.00;;;7.10;99.90;;;;;;4959750;28;20180;-74
2022/12/30 05:15:20;;;;;;;4.17;1.40;;;7.20;99.90;;;;;;4957955;28;20212;-74
2022/12/30 05:17:48;;;;;;;5.03;1.03;;;7.20;99.90;;;;;;4960019;28;20179;-75
2022/12/30 05:20:16;;;;;;;4.50;1.40;;;7.20;99.90;;;;;;4959902;28;20232;-75
2022/12/30 05:22:42;;;;;;;6.33;1.20;;;7.30;99.90;;;;;;4959680;28;20204;-74
2022/12/30 05:27:54;;;;;;;3.77;1.30;;;7.50;99.90;;;;;;4983868;28;20198;-75
2022/12/30 05:30:24;;;;;;;3.50;1.30;;;7.40;99.90;;;;;;4946764;29;20185;-73
2022/12/30 05:32:49;;;;;;;5.60;1.43;;;7.50;99.90;;;;;;4971816;28;20194;-75
2022/12/30 05:35:18;;;;;;;3.70;1.00;;;7.50;99.90;;;;;;4981574;28;20204;-74
2022/12/30 05:37:51;;;;;;;6.50;1.43;;;7.60;99.90;;;;;;4946915;28;20181;-76
2022/12/30 05:40:16;;;;;;;4.43;1.30;;;7.70;99.90;;;;;;4971626;28;20180;-74
2022/12/30 05:42:43;;;;;;;5.03;1.20;;;7.70;99.90;;;;;;4957285;28;20187;-74
2022/12/30 05:45:14;;;;;;;4.20;1.33;;;7.70;99.90;;;;;;4956576;28;20195;-74
2022/12/30 05:47:40;;;;;;;3.37;1.53;;;7.80;99.90;;;;;;4961496;28;20180;-74
2022/12/30 05:50:08;;;;;;;3.73;1.10;;;7.80;99.90;;;;;;4965339;28;20206;-74
2022/12/30 05:52:33;;;;;;;2.87;1.03;;;7.90;99.90;;;;;;4967236;28;20180;-75
2022/12/30 05:54:59;;;;;;;3.77;0.93;;;7.90;99.90;;;;;;4955950;28;20203;-73
2022/12/30 05:57:27;;;;;;;5.37;1.17;;;7.90;99.90;;;;;;4958628;28;20205;-74
2022/12/30 05:59:52;;;;;;;3.83;1.00;;;8.00;99.90;;;;;;4962163;28;20387;-74
2022/12/30 06:02:18;;;;;;;5.87;1.10;;;7.90;99.90;;;;;;4961823;28;20199;-74
2022/12/30 06:04:44;;;;;;;4.10;0.90;;;7.90;99.90;;;;;;4975192;28;20212;-74
2022/12/30 06:07:09;;;;;;;2.83;1.03;;;7.90;99.90;;;;;;4973120;28;20190;-74
2022/12/30 06:09:42;;;;;;;1.83;0.90;;;7.90;99.90;;;;;;4976561;28;20186;-74
2022/12/30 06:12:11;;;;;;;1.53;1.00;;;7.90;99.90;;;;;;4971835;28;20266;-74
2022/12/30 06:14:36;;;;;;;4.07;1.10;;;7.90;99.90;;;;;;4957322;28;20364;-74
2022/12/30 06:17:02;;;;;;;2.50;1.10;;;7.90;99.90;;;;;;4966858;28;20451;-74
2022/12/30 06:19:27;;;;;;;3.27;1.00;;;7.80;99.90;;;;;;4959303;28;20176;-74
2022/12/30 06:21:55;;;;;;;3.73;1.10;;;7.70;99.90;;;;;;4949178;28;20175;-74
2022/12/30 06:24:21;;;;;;;3.17;1.00;;;7.70;99.90;;;;;;4962089;28;20203;-74
2022/12/30 06:26:46;;;;;;;3.67;1.10;;;7.70;99.90;;;;;;4978717;28;20190;-75
2022/12/30 06:29:14;;;;;;;4.53;1.37;;;7.80;99.90;;;;;;4960466;28;20192;-74
2022/12/30 06:31:42;;;;;;;4.07;1.07;;;7.70;99.90;;;;;;4962354;28;20211;-74
2022/12/30 06:34:12;;;;;;;3.33;1.20;;;7.70;99.90;;;;;;4965830;28;20200;-74
2022/12/30 06:36:38;;;;;;;3.20;1.00;;;7.70;99.90;;;;;;4948341;28;20198;-75
2022/12/30 06:39:04;;;;;;;4.37;1.30;;;7.70;99.90;;;;;;4959663;28;20291;-74
2022/12/30 06:41:29;;;;;;;2.97;1.00;;;7.70;99.90;;;;;;4960704;28;20286;-75
2022/12/30 06:43:55;;;;;;;3.50;1.07;;;7.70;99.90;;;;;;4966013;28;20172;-73
2022/12/30 06:46:23;;;;;;;4.33;1.20;;;7.70;99.90;;;;;;4951216;28;20208;-74
2022/12/30 06:48:48;;;;;;;2.53;1.07;;;7.70;99.90;;;;;;4960430;28;20478;-74
2022/12/30 06:51:14;;;;;;;4.47;1.23;;;7.70;99.90;;;;;;4962709;28;20176;-73
2022/12/30 06:53:40;;;;;;;4.30;1.10;;;7.70;99.90;;;;;;4981659;28;20176;-74
2022/12/30 06:56:08;;;;;;;2.60;0.93;;;7.70;99.90;;;;;;4982058;28;20258;-74
2022/12/30 06:58:34;;;;;;;3.23;1.10;;;7.70;99.90;;;;;;4981709;28;20171;-74
2022/12/30 07:00:59;;;;;;;2.83;1.07;;;7.70;99.90;;;;;;4966100;28;20168;-74
2022/12/30 07:03:25;;;;;;;4.87;1.30;;;7.60;99.90;;;;;;4962581;28;20176;-74
2022/12/30 07:05:51;;;;;;;3.83;1.00;;;7.60;99.90;;;;;;4963895;28;20218;-75
2022/12/30 07:08:16;;;;;;;3.20;0.90;;;7.60;99.90;;;;;;4968985;28;20179;-75
2022/12/30 07:10:48;;;;;;;6.40;1.50;;;7.70;99.90;;;;;;4962002;28;20250;-75
2022/12/30 07:13:13;;;;;;;4.03;1.00;;;7.60;99.90;;;;;;4953211;28;20200;-74
2022/12/30 07:15:40;;;;;;;2.43;1.10;;;7.70;99.90;;;;;;4977313;28;20226;-73
2022/12/30 07:18:06;;;;;;;3.07;1.23;;;7.70;99.90;;;;;;4984960;28;20186;-73
2022/12/30 07:20:34;;;;;;;3.50;1.20;;;7.70;99.90;;;;;;4969269;28;20220;-73
2022/12/30 07:23:02;;;;;;;3.30;1.23;;;7.70;99.90;;;;;;4964928;28;20191;-73
2022/12/30 07:25:30;;;;;;;2.73;1.20;;;7.70;99.90;;;;;;4962503;28;20210;-76
2022/12/30 07:28:03;;;;;;;2.90;1.00;;;7.70;99.90;;;;;;4956372;28;20184;-76
2022/12/30 07:30:32;;;;;;;3.30;1.00;;;7.70;99.90;;;;;;4983883;28;20192;-77
2022/12/30 07:32:58;;;;;;;3.83;1.20;;;7.70;99.90;;;;;;4970298;28;20234;-77
2022/12/30 07:35:24;;;;;;;4.77;1.20;;;7.70;99.90;;;;;;4954233;28;20205;-76
2022/12/30 07:37:51;;;;;;;3.63;1.10;;;7.80;99.90;;;;;;4960790;28;20196;-79
2022/12/30 07:40:17;;;;;;;4.20;1.30;;;7.80;99.90;;;;;;4958776;28;20190;-83
2022/12/30 07:42:43;;;;;;;2.90;0.90;;;7.80;99.90;;;;;;4977352;28;20265;-79
2022/12/30 07:45:11;;;;;;;2.77;0.90;;;7.80;99.90;;;;;;4962477;28;20517;-84
2022/12/30 07:47:37;;;;;;;2.33;0.93;;;7.90;99.90;;;;;;4962327;28;20180;-84
2022/12/30 07:50:06;;;;;;;3.63;1.20;;;8.20;99.90;;;;;;4962110;28;20181;-83
2022/12/30 07:52:32;;;;;;;4.40;1.00;;;8.10;99.90;;;;;;4954064;28;20206;-84
2022/12/30 07:54:58;;;;;;;2.73;1.10;;;8.20;99.90;;;;;;4963106;28;20199;-81
2022/12/30 07:57:23;;;;;;;2.87;1.20;;;8.30;99.90;;;;;;4965622;28;20197;-84
2022/12/30 07:59:51;;;;;;;4.83;1.60;;;8.40;99.90;;;;;;4965039;28;20262;-75
2022/12/30 08:02:19;;;;;;;2.90;1.10;;;8.50;99.90;;;;;;4968492;28;20179;-74
2022/12/30 08:04:45;;;;;;;2.37;1.10;;;8.50;99.90;;;;;;4960341;28;20208;-74
2022/12/30 08:07:10;;;;;;;2.97;1.20;;;8.60;99.90;;;;;;4959592;28;20179;-74
2022/12/30 08:09:37;;;;;;;4.07;1.33;;;8.60;99.90;;;;;;4961210;28;20180;-74
2022/12/30 08:12:03;;;;;;;5.27;1.10;;;8.60;99.90;;;;;;4954797;28;20204;-75
2022/12/30 08:14:28;;;;;;;4.87;1.80;;;8.60;99.90;;;;;;4963510;28;20200;-75
2022/12/30 08:17:06;;;;;;;5.87;1.60;;;8.70;99.90;;;;;;4964874;28;20191;-76
2022/12/30 08:19:32;;;;;;;4.53;1.40;;;8.70;99.90;;;;;;4967480;28;20207;-75
2022/12/30 08:21:58;;;;;;;6.23;1.57;;;8.70;99.90;;;;;;4961828;28;20237;-74
2022/12/30 08:24:23;;;;;;;5.13;1.30;;;8.70;99.90;;;;;;4964086;28;20188;-74
2022/12/30 08:26:51;;;;;;;4.13;1.37;;;8.70;99.90;;;;;;4960860;28;20211;-75
2022/12/30 08:29:17;;;;;;;3.13;1.00;;;8.80;99.90;;;;;;4960516;28;20229;-75
2022/12/30 08:31:49;;;;;;;3.17;1.37;;;8.90;99.90;;;;;;4962119;28;20274;-75
2022/12/30 08:34:19;;;;;;;5.37;1.57;;;8.90;99.90;;;;;;4963496;28;20215;-75
2022/12/30 08:36:48;;;;;;;4.07;1.40;;;9.00;99.90;;;;;;4960897;28;20176;-75
2022/12/30 08:39:14;;;;;;;6.03;1.40;;;9.00;99.90;;;;;;4962093;28;20180;-75
2022/12/30 08:41:42;;;;;;;3.10;0.97;;;9.00;99.90;;;;;;4957623;28;20185;-74
2022/12/30 08:44:09;;;;;;;4.70;1.20;;;9.20;99.90;;;;;;4953463;28;20177;-75
2022/12/30 08:46:36;;;;;;;6.00;1.63;;;9.20;99.90;;;;;;4958769;28;20196;-75
2022/12/30 08:49:05;;;;;;;6.37;1.43;;;9.30;99.90;;;;;;4962323;28;20275;-73
2022/12/30 08:51:33;;;;;;;2.63;1.20;;;9.40;99.90;;;;;;4959898;28;20250;-73
2022/12/30 08:54:01;;;;;;;6.00;1.53;;;9.40;99.90;;;;;;4964220;28;20235;-75
2022/12/30 08:56:34;;;;;;;3.77;1.40;;;9.40;99.90;;;;;;4980204;28;20262;-76
2022/12/30 08:59:03;;;;;;;3.50;1.23;;;9.50;99.90;;;;;;4979584;28;20269;-75
2022/12/30 09:01:33;;;;;;;3.53;1.53;;;9.60;99.90;;;;;;4963736;28;20184;-74
2022/12/30 09:03:59;;;;;;;3.87;1.23;;;9.60;99.90;;;;;;4960404;28;20258;-75
2022/12/30 09:06:31;;;;;;;4.07;1.40;;;9.70;99.90;;;;;;4959794;28;20295;-75
2022/12/30 09:08:58;;;;;;;3.23;1.50;;;9.70;99.90;;;;;;4948048;28;20172;-75
2022/12/30 09:11:29;;;;;;;4.23;1.20;;;9.80;99.90;;;;;;4960035;28;20179;-75
2022/12/30 09:13:56;;;;;;;3.63;1.23;;;9.80;99.90;;;;;;4960157;28;20207;-76
2022/12/30 09:16:23;;;;;;;3.73;1.30;;;10.00;99.90;;;;;;4960041;28;20187;-75
2022/12/30 09:18:49;;;;;;;5.77;1.60;;;9.90;99.90;;;;;;4959376;28;20200;-76
2022/12/30 09:21:16;;;;;;;3.38;1.15;;;10.00;99.90;;;;;;4959714;28;20223;-74
2022/12/30 09:23:45;;;;;;;3.80;1.20;;;10.00;99.90;;;;;;4961528;28;20176;-75
2022/12/30 09:26:23;;;;;;;3.40;1.17;;;10.10;99.90;;;;;;4959089;28;20191;-77
2022/12/30 09:28:52;;;;;;;3.30;1.20;;;10.20;99.90;;;;;;4954653;28;20183;-75
2022/12/30 09:31:23;;;;;;;2.47;1.30;;;10.20;99.90;;;;;;4954850;28;20220;-74
2022/12/30 09:33:48;;;;;;;4.45;1.38;;;10.30;99.90;;;;;;4957955;28;20188;-75
2022/12/30 09:36:14;;;;;;;2.95;1.20;;;10.40;99.90;;;;;;4961357;28;20342;-75
2022/12/30 09:38:40;;;;;;;3.15;1.20;;;10.50;99.90;;;;;;4964738;28;20213;-72
2022/12/30 09:41:15;;;;;;;5.65;1.27;;;10.50;99.90;;;;;;4956966;28;20209;-75
2022/12/30 09:44:03;;;;;;;3.53;1.30;;;10.60;99.90;;;;;;4967162;28;20191;-75
2022/12/30 09:46:43;;;;;;;2.72;1.10;;;10.60;99.90;;;;;;4947919;28;20202;-75
2022/12/30 09:49:30;;;;;;;2.60;1.20;;;10.70;99.90;;;;;;4968946;28;20262;-73
2022/12/30 09:52:19;;;;;;;2.40;1.10;;;10.70;99.90;;;;;;4961092;28;20534;-75
2022/12/30 09:54:52;;;;;;;3.75;1.15;;;10.80;99.90;;;;;;4960914;28;20198;-75
2022/12/30 09:57:32;;;;;;;4.50;1.20;;;10.80;99.90;;;;;;4960352;28;20192;-75
2022/12/30 10:00:14;;;;;;;5.50;1.42;;;10.80;99.90;;;;;;4959594;28;20187;-76
2022/12/30 10:03:07;;;;;;;2.72;1.30;;;10.80;99.90;;;;;;4964129;28;20194;-75
2022/12/30 10:05:45;;;;;;;2.65;1.10;;;10.80;99.90;;;;;;4956220;28;20191;-73
2022/12/30 10:08:28;;;;;;;4.20;1.45;;;10.80;99.90;;;;;;4974557;28;20241;-76
2022/12/30 10:11:26;;;;;;;5.70;1.05;;;10.80;99.90;;;;;;4969061;28;20287;-76
2022/12/30 10:14:23;;;;;;;2.90;1.08;;;10.90;99.90;;;;;;4961163;28;20222;-75
2022/12/30 10:16:54;;;;;;;2.38;1.20;;;10.90;99.90;;;;;;4960701;28;20235;-76
2022/12/30 10:19:38;;;;;;;2.38;1.00;;;10.80;99.90;;;;;;4958690;28;20271;-76
2022/12/30 10:22:30;;;;;;;3.90;1.27;;;10.90;99.90;;;;;;4972192;28;20192;-76
2022/12/30 10:25:01;;;;;;;2.00;0.98;;;10.90;99.90;;;;;;4961291;28;20173;-76
2022/12/30 10:27:50;;;;;;;4.57;1.30;;;11.00;99.90;;;;;;4960133;28;20240;-76
2022/12/30 10:30:22;;;;;;;3.63;1.10;;;11.00;99.90;;;;;;4954994;28;20181;-77
2022/12/30 10:32:55;;;;;;;4.25;1.38;;;11.00;99.90;;;;;;4961682;28;20176;-77
2022/12/30 10:35:30;;;;;;;3.72;1.17;;;11.00;99.90;;;;;;4958294;28;20299;-76
2022/12/30 10:38:08;;;;;;;3.55;1.02;;;11.00;99.90;;;;;;4964063;28;20247;-77
2022/12/30 10:41:12;;;;;;;1.65;0.93;;;11.00;99.90;;;;;;4977630;28;20179;-77
2022/12/30 10:43:40;;;;;;;2.25;0.90;;;11.10;99.90;;;;;;4966810;28;20176;-75
2022/12/30 10:46:25;;;;;;;2.45;1.10;;;11.10;99.90;;;;;;4963844;28;20188;-76
2022/12/30 10:49:16;;;;;;;2.40;1.20;;;11.10;99.90;;;;;;4956356;28;20203;-76
2022/12/30 10:51:45;;;;;;;3.95;1.20;;;11.10;99.90;;;;;;4957452;28;20294;-77
2022/12/30 10:54:13;;;;;;;2.65;1.23;;;11.10;99.90;;;;;;4958617;28;20184;-77
2022/12/30 10:56:39;;;;;;;3.13;1.17;;;11.20;99.90;;;;;;4960026;28;20263;-76
2022/12/30 10:59:18;;;;;;;3.50;1.30;;;11.10;99.90;;;;;;4953921;28;20275;-76
2022/12/30 11:01:46;;;;;;;3.33;1.20;;;11.20;99.90;;;;;;4965254;28;20282;-77
2022/12/30 11:04:39;;;;;;;3.67;1.40;;;11.20;99.90;;;;;;4970558;28;20179;-76
2022/12/30 11:07:08;;;;;;;4.60;1.40;;;11.20;99.90;;;;;;4964970;28;20177;-75
2022/12/30 11:09:34;;;;;;;2.08;1.05;;;11.20;99.90;;;;;;4964009;28;20259;-75
2022/12/30 11:15:13;;;;;;;2.38;0.95;;;11.10;99.90;;;;;;4977807;28;20308;-78
2022/12/30 11:17:53;;;;;;;3.40;1.10;;;11.10;99.90;;;;;;4964851;28;20191;-76
2022/12/30 11:20:18;;;;;;;1.60;0.98;;;11.10;99.90;;;;;;4960365;28;20271;-73
2022/12/30 11:22:53;;;;;;;4.63;1.30;;;11.10;99.90;;;;;;4955783;28;20327;-77
2022/12/30 11:25:29;;;;;;;2.25;1.10;;;11.10;99.90;;;;;;4957866;28;20183;-76
2022/12/30 11:27:58;;;;;;;4.40;1.20;;;11.10;99.90;;;;;;4957962;28;20224;-74
2022/12/30 11:30:36;;;;;;;1.55;0.95;;;11.10;99.90;;;;;;4956166;28;20235;-76
2022/12/30 11:33:26;;;;;;;2.17;1.20;;;11.10;99.90;;;;;;4960349;28;20208;-76
2022/12/30 11:35:52;;;;;;;1.73;0.88;;;11.10;99.90;;;;;;4964225;28;20295;-75
2022/12/30 11:38:33;;;;;;;3.53;1.30;;;11.20;99.90;;;;;;4958837;28;20204;-74
2022/12/30 11:41:21;;;;;;;2.70;1.10;;;11.10;99.90;;;;;;4973544;28;20207;-77
2022/12/30 11:44:00;;;;;;;2.83;1.10;;;11.10;99.90;;;;;;4957801;28;20285;-74
2022/12/30 11:46:29;;;;;;;3.75;1.60;;;11.10;99.90;;;;;;4962222;28;20191;-77
2022/12/30 11:48:59;;;;;;;1.80;1.02;;;11.10;99.90;;;;;;4972444;28;20219;-75
2022/12/30 11:51:31;;;;;;;4.10;1.42;;;11.10;99.90;;;;;;4959924;28;20258;-76
2022/12/30 11:54:09;;;;;;;3.05;1.10;;;11.10;99.90;;;;;;4952991;28;20176;-76
2022/12/30 11:56:59;;;;;;;2.67;1.13;;;11.10;99.90;;;;;;4963538;28;20194;-74
2022/12/30 11:59:35;;;;;;;3.45;1.00;;;11.10;99.90;;;;;;4959019;28;20223;-77
2022/12/30 12:02:05;;;;;;;2.83;1.00;;;11.10;99.90;;;;;;4965446;28;20176;-77
2022/12/30 12:04:39;;;;;;;2.67;1.23;;;11.10;99.90;;;;;;4956257;28;20180;-74
2022/12/30 12:07:36;;;;;;;2.00;1.00;;;11.10;99.90;;;;;;4960090;28;20191;-76
2022/12/30 12:10:02;;;;;;;3.92;0.95;;;11.10;99.90;;;;;;4941630;29;20208;-75
2022/12/30 12:12:35;;;;;;;0.95;0.77;;;11.10;99.90;;;;;;4956271;28;20235;-75
2022/12/30 12:15:15;;;;;;;2.75;0.90;;;11.10;99.90;;;;;;4964540;28;20199;-76
2022/12/30 12:17:54;;;;;;;1.90;1.00;;;11.00;99.90;;;;;;4964428;28;20214;-75
2022/12/30 12:20:46;;;;;;;4.43;1.15;;;11.00;99.90;;;;;;4968673;28;20513;-77
2022/12/30 12:23:47;;;;;;;1.88;1.20;;;11.00;99.90;;;;;;4953916;28;20180;-74
2022/12/30 12:26:23;;;;;;;4.10;1.25;;;11.00;99.90;;;;;;4907990;28;20249;-76
2022/12/30 12:28:53;;;;;;;2.42;0.95;;;11.00;99.90;;;;;;4959533;28;20164;-76
2022/12/30 12:31:28;;;;;;;2.33;1.08;;;11.00;99.90;;;;;;4957485;28;20204;-77
2022/12/30 12:34:21;;;;;;;2.28;1.10;;;10.90;99.90;;;;;;4959438;28;20171;-75
2022/12/30 12:36:57;;;;;;;2.28;1.10;;;10.90;99.90;;;;;;4979191;28;20211;-74
2022/12/30 12:39:35;;;;;;;1.70;1.00;;;11.00;99.90;;;;;;4954060;28;20176;-75
2022/12/30 12:42:09;;;;;;;2.15;1.13;;;11.00;99.90;;;;;;4962613;28;21568;-76
2022/12/30 12:44:56;;;;;;;2.13;1.00;;;11.00;99.90;;;;;;4957932;28;20209;-75
2022/12/30 12:47:38;;;;;;;4.90;1.20;;;10.90;99.90;;;;;;4963252;28;20179;-76
2022/12/30 12:50:12;;;;;;;1.90;1.00;;;11.00;99.90;;;;;;4962322;28;20176;-77
2022/12/30 12:52:50;;;;;;;1.92;0.90;;;11.00;99.90;;;;;;4945466;28;20172;-75
2022/12/30 12:55:55;;;;;;;4.18;1.15;;;11.00;99.90;;;;;;4992979;28;20206;-75
2022/12/30 12:58:27;;;;;;;3.13;1.27;;;11.00;99.90;;;;;;4979502;28;20175;-76
2022/12/30 13:01:02;;;;;;;2.25;0.90;;;11.00;99.90;;;;;;4979177;28;20200;-75
2022/12/30 13:03:41;;;;;;;3.03;1.42;;;11.00;99.90;;;;;;4979211;28;20257;-75
2022/12/30 13:06:27;;;;;;;2.75;1.13;;;11.00;99.90;;;;;;4955024;28;20208;-77
2022/12/30 13:09:32;;;;;;;2.28;1.00;;;11.00;99.90;;;;;;4960002;28;20180;-76
2022/12/30 13:12:06;;;;;;;1.73;0.82;;;11.10;99.90;;;;;;4956384;28;20200;-75
2022/12/30 13:14:48;;;;;;;2.97;1.00;;;11.20;99.90;;;;;;4940372;29;20201;-77
2022/12/30 13:17:39;;;;;;;2.80;1.10;;;11.10;99.90;;;;;;4948813;28;20172;-79
2022/12/30 13:20:17;;;;;;;2.83;1.10;;;11.10;99.90;;;;;;4959577;28;20198;-77
2022/12/30 13:22:44;;;;;;;2.92;0.90;;;11.20;99.90;;;;;;4960668;28;20322;-75
2022/12/30 13:25:19;;;;;;;3.08;1.23;;;11.10;99.90;;;;;;4969176;28;20194;-76
2022/12/30 13:27:50;;;;;;;1.95;1.00;;;11.10;99.90;;;;;;4955404;28;20191;-77
2022/12/30 13:30:20;;;;;;;2.97;1.25;;;11.10;99.90;;;;;;4961093;28;20298;-74
2022/12/30 13:33:15;;;;;;;3.28;1.20;;;11.10;99.90;;;;;;4960431;28;20322;-75
2022/12/30 13:36:04;;;;;;;1.73;1.20;;;11.10;99.90;;;;;;4954499;28;20208;-76
2022/12/30 13:38:55;;;;;;;3.47;1.10;;;11.10;99.90;;;;;;4959135;28;20271;-75
2022/12/30 13:41:20;;;;;;;1.73;1.02;;;11.10;99.90;;;;;;4970771;28;20184;-75
2022/12/30 13:43:53;;;;;;;1.95;1.10;;;11.10;99.90;;;;;;4951663;28;20167;-76
2022/12/30 13:46:23;;;;;;;3.17;1.17;;;11.10;99.90;;;;;;4960269;28;20239;-76
2022/12/30 13:48:54;;;;;;;5.05;1.30;;;11.10;99.90;;;;;;4961268;28;20199;-76
2022/12/30 13:51:27;;;;;;;4.13;1.20;;;11.20;99.90;;;;;;4956583;28;20198;-75
2022/12/30 13:54:01;;;;;;;2.05;1.05;;;11.10;99.90;;;;;;4960104;28;20206;-75
2022/12/30 13:56:42;;;;;;;3.60;1.25;;;11.10;99.90;;;;;;4951478;28;20188;-75
2022/12/30 13:59:28;;;;;;;2.03;1.02;;;11.20;99.90;;;;;;4959909;28;20191;-75
2022/12/30 14:02:21;;;;;;;3.63;1.05;;;11.10;99.90;;;;;;4955105;28;20191;-76
2022/12/30 14:04:48;;;;;;;2.75;1.05;;;11.10;99.90;;;;;;4957400;28;20176;-76
2022/12/30 14:07:42;;;;;;;2.65;1.27;;;11.10;99.90;;;;;;4959254;28;20223;-75
2022/12/30 14:10:20;;;;;;;3.47;1.08;;;11.10;99.90;;;;;;4940052;29;20199;-75
2022/12/30 14:13:16;;;;;;;2.88;1.10;;;11.00;99.90;;;;;;4955391;28;20196;-75
2022/12/30 14:15:42;;;;;;;3.13;1.17;;;11.10;99.90;;;;;;4951326;28;20214;-75